createdAt,value
2018-04-18T06:30:49.439Z,6.63
2018-04-18T06:33:17.001Z,7.43
2018-04-18T06:35:44.559Z,6.57
2018-04-18T06:38:12.162Z,5.63
2018-04-18T06:40:39.734Z,6.23
2018-04-18T06:43:07.279Z,6.33
2018-04-18T06:45:35.720Z,5.97
2018-04-18T06:48:03.806Z,6.03
2018-04-18T06:50:31.337Z,5.53
2018-04-18T06:52:58.862Z,6.43
2018-04-18T06:55:27.033Z,5.37
2018-04-18T06:57:54.582Z,5.23
2018-04-18T07:00:22.118Z,5.67
2018-04-18T07:02:49.735Z,6.10
2018-04-18T07:05:17.271Z,5.07
2018-04-18T07:07:44.801Z,5.47
2018-04-18T07:10:18.325Z,5.40
2018-04-18T07:12:46.610Z,5.90
2018-04-18T07:15:14.186Z,5.13
2018-04-18T07:17:41.713Z,5.33
2018-04-18T07:20:09.955Z,5.60
2018-04-18T07:22:38.162Z,5.63
2018-04-18T07:25:06.531Z,6.37
2018-04-18T07:27:34.116Z,6.53
2018-04-18T07:30:01.670Z,6.77
2018-04-18T07:32:29.253Z,5.70
2018-04-18T07:34:56.851Z,6.43
2018-04-18T07:37:24.442Z,5.83
2018-04-18T07:39:51.998Z,6.70
2018-04-18T07:42:19.625Z,5.07
2018-04-18T07:44:47.800Z,6.27
2018-04-18T07:47:15.343Z,5.70
2018-04-18T07:49:43.377Z,5.83
2018-04-18T07:52:11.054Z,5.43
2018-04-18T07:54:38.611Z,5.73
2018-04-18T07:57:06.159Z,5.50
2018-04-18T07:59:33.753Z,5.33
2018-04-18T08:02:01.283Z,5.90
2018-04-18T08:04:28.874Z,5.40
2018-04-18T08:06:56.408Z,6.77
2018-04-18T08:09:23.946Z,4.83
2018-04-18T08:11:52.188Z,7.60
2018-04-18T08:14:20.354Z,6.23
2018-04-18T08:16:47.902Z,6.00
2018-04-18T08:19:15.433Z,5.77
2018-04-18T08:21:44.540Z,6.17
2018-04-18T08:24:12.722Z,5.83
2018-04-18T08:26:41.046Z,6.00
2018-04-18T08:29:08.580Z,6.33
2018-04-18T08:31:36.145Z,6.07
2018-04-18T08:34:03.761Z,6.37
2018-04-18T08:36:31.316Z,5.77
2018-04-18T08:38:59.280Z,6.37
2018-04-18T08:41:27.396Z,6.50
2018-04-18T08:43:55.481Z,7.23
2018-04-18T08:46:23.028Z,5.67
2018-04-18T08:48:51.926Z,6.80
2018-04-18T08:51:19.493Z,6.07
2018-04-18T08:53:47.051Z,6.50
2018-04-18T08:56:14.611Z,6.47
2018-04-18T08:58:42.216Z,6.37
2018-04-18T09:01:09.745Z,5.87
2018-04-18T09:03:37.718Z,5.67
2018-04-18T09:06:05.270Z,5.93
2018-04-18T09:08:32.794Z,5.90
2018-04-18T09:11:00.373Z,6.00
2018-04-18T09:13:28.591Z,6.40
2018-04-18T09:15:56.121Z,5.77
2018-04-18T09:18:23.654Z,6.50
2018-04-18T09:20:51.957Z,6.50
2018-04-18T09:23:20.213Z,6.53
2018-04-18T09:25:48.336Z,7.33
2018-04-18T09:28:15.900Z,7.20
2018-04-18T09:30:43.454Z,6.77
2018-04-18T09:33:11.937Z,6.80
2018-04-18T09:35:39.494Z,6.97
2018-04-18T09:38:07.078Z,6.53
2018-04-18T09:40:34.664Z,7.20
2018-04-18T09:43:02.224Z,6.90
2018-04-18T09:45:31.082Z,7.50
2018-04-18T09:47:59.393Z,6.30
2018-04-18T09:50:26.938Z,6.87
2018-04-18T09:52:54.466Z,6.47
2018-04-18T09:55:22.030Z,6.07
2018-04-18T09:57:49.554Z,6.43
2018-04-18T10:00:17.089Z,9.70
2018-04-18T10:02:44.698Z,6.67
2018-04-18T10:05:12.360Z,6.73
2018-04-18T10:07:39.893Z,6.60
2018-04-18T10:10:07.526Z,6.80
2018-04-18T10:12:35.978Z,6.73
2018-04-18T10:15:03.634Z,7.23
2018-04-18T10:17:31.179Z,6.53
2018-04-18T10:19:59.290Z,6.40
2018-04-18T10:22:27.854Z,7.37
2018-04-18T10:24:56.265Z,7.53
2018-04-18T10:27:23.812Z,7.87
2018-04-18T10:29:51.899Z,7.37
2018-04-18T10:32:19.510Z,9.17
2018-04-18T10:34:47.054Z,7.40
2018-04-18T10:37:14.595Z,8.60
2018-04-18T10:39:42.682Z,8.00
2018-04-18T10:42:11.445Z,9.43
2018-04-18T10:44:40.214Z,8.03
2018-04-18T10:47:07.994Z,8.03
2018-04-18T10:49:36.145Z,7.40
2018-04-18T10:52:04.573Z,8.33
2018-04-18T10:54:32.148Z,7.87
2018-04-18T10:56:59.731Z,7.07
2018-04-18T10:59:27.330Z,8.30
2018-04-18T11:01:55.788Z,7.63
2018-04-18T11:04:23.360Z,8.33
2018-04-18T11:06:51.046Z,7.70
2018-04-18T11:09:18.584Z,7.80
2018-04-18T11:11:46.860Z,7.63
2018-04-18T11:14:15.088Z,7.33
2018-04-18T11:16:42.667Z,7.00
2018-04-18T11:19:11.017Z,7.83
2018-04-18T11:21:39.318Z,6.67
2018-04-18T11:24:07.276Z,7.27
2018-04-18T11:26:35.350Z,7.53
2018-04-18T11:29:02.884Z,7.80
2018-04-18T11:31:30.431Z,7.07
2018-04-18T11:33:59.456Z,9.53
2018-04-18T11:36:27.428Z,6.83
2018-04-18T11:38:55.032Z,7.17
2018-04-18T11:41:23.604Z,6.60
2018-04-18T11:43:52.948Z,6.90
2018-04-18T11:46:20.603Z,6.33
2018-04-18T11:48:48.835Z,5.97
2018-04-18T11:51:16.387Z,6.60
2018-04-18T11:53:44.737Z,5.73
2018-04-18T11:56:12.314Z,6.10
2018-04-18T11:58:40.001Z,6.33
2018-04-18T12:01:07.562Z,6.30
2018-04-18T12:03:35.099Z,6.33
2018-04-18T12:06:02.643Z,6.63
2018-04-18T12:08:30.249Z,6.13
2018-04-18T12:10:58.583Z,6.70
2018-04-18T12:13:26.610Z,5.63
2018-04-18T12:15:54.152Z,5.30
2018-04-18T12:18:22.507Z,6.70
2018-04-18T12:20:50.709Z,7.07
2018-04-18T12:23:18.925Z,5.37
2018-04-18T12:25:47.534Z,5.67
2018-04-18T12:28:15.129Z,5.90
2018-04-18T12:30:43.292Z,5.10
2018-04-18T12:33:11.413Z,5.77
2018-04-18T12:35:38.961Z,5.10
2018-04-18T12:38:06.543Z,6.20
2018-04-18T12:40:34.205Z,4.60
2018-04-18T12:43:01.749Z,5.60
2018-04-18T12:45:30.088Z,4.53
2018-04-18T12:47:58.519Z,3.90
2018-04-18T12:50:26.901Z,3.40
2018-04-18T12:52:55.166Z,4.93
2018-04-18T12:55:22.702Z,3.10
2018-04-18T12:57:51.423Z,3.90
2018-04-18T13:00:19.003Z,3.27
2018-04-18T13:02:46.527Z,2.90
2018-04-18T13:05:14.082Z,3.37
2018-04-18T13:07:42.401Z,2.80
2018-04-18T13:10:09.952Z,3.83
2018-04-18T13:12:38.024Z,2.83
2018-04-18T13:15:06.216Z,3.50
2018-04-18T13:17:33.746Z,3.10
2018-04-18T13:20:01.818Z,4.10
2018-04-18T13:22:29.878Z,3.13
2018-04-18T13:24:58.123Z,3.97
2018-04-18T13:27:25.668Z,3.17
2018-04-18T13:29:53.214Z,2.90
2018-04-18T13:32:21.066Z,3.47
2018-04-18T13:34:48.614Z,3.07
2018-04-18T13:37:16.180Z,3.37
2018-04-18T13:39:43.769Z,2.97
2018-04-18T13:42:11.406Z,3.93
2018-04-18T13:44:39.774Z,2.80
2018-04-18T13:47:07.295Z,3.40
2018-04-18T13:49:35.688Z,2.97
2018-04-18T13:52:04.720Z,3.30
2018-04-18T13:54:32.244Z,3.10
2018-04-18T13:57:00.291Z,3.80
2018-04-18T13:59:27.828Z,2.80
2018-04-18T14:01:55.372Z,3.30
2018-04-18T14:04:22.955Z,2.97
2018-04-18T14:06:50.953Z,3.40
2018-04-18T14:09:18.495Z,3.40
2018-04-18T14:11:46.711Z,2.97
2018-04-18T14:14:15.873Z,3.87
2018-04-18T14:16:43.411Z,3.20
2018-04-18T14:19:11.533Z,3.50
2018-04-18T14:21:39.580Z,3.70
2018-04-18T14:24:07.749Z,4.13
2018-04-18T14:26:35.871Z,3.10
2018-04-18T14:29:03.475Z,4.40
2018-04-18T14:31:31.002Z,3.00
2018-04-18T14:33:58.602Z,3.23
2018-04-18T14:36:26.162Z,3.47
2018-04-18T14:38:53.707Z,3.50
2018-04-18T14:41:21.716Z,2.93
2018-04-18T14:43:49.791Z,3.03
2018-04-18T14:46:17.342Z,2.90
2018-04-18T14:48:45.581Z,2.80
2018-04-18T14:51:13.111Z,3.73
2018-04-18T14:53:41.257Z,2.90
2018-04-18T14:56:08.804Z,3.63
2018-04-18T14:58:36.331Z,2.80
2018-04-18T15:01:03.908Z,3.17
2018-04-18T15:03:31.439Z,2.93
2018-04-18T15:05:59.052Z,4.67
2018-04-18T15:08:27.131Z,3.07
2018-04-18T15:10:55.500Z,3.33
2018-04-18T15:13:23.928Z,2.87
2018-04-18T15:15:51.491Z,2.77
2018-04-18T15:18:19.020Z,3.07
2018-04-18T15:20:48.113Z,3.50
2018-04-18T15:23:16.225Z,3.73
2018-04-18T15:25:44.240Z,2.67
2018-04-18T15:28:13.642Z,3.63
2018-04-18T15:30:41.294Z,2.73
2018-04-18T15:33:09.010Z,3.33
2018-04-18T15:35:36.600Z,4.30
2018-04-18T15:38:04.128Z,2.77
2018-04-18T15:40:32.536Z,3.40
2018-04-18T15:43:00.078Z,3.03
2018-04-18T15:45:28.293Z,3.80
2018-04-18T15:47:56.560Z,2.93
2018-04-18T15:50:24.151Z,3.70
2018-04-18T15:52:52.266Z,2.73
2018-04-18T15:55:19.823Z,3.23
2018-04-18T15:57:47.356Z,3.40
2018-04-18T16:00:14.952Z,3.30
2018-04-18T16:02:42.819Z,3.67
2018-04-18T16:05:10.507Z,2.73
2018-04-18T16:07:38.590Z,3.80
2018-04-18T16:10:06.344Z,2.80
2018-04-18T16:12:34.744Z,3.80
2018-04-18T16:15:02.281Z,3.03
2018-04-18T16:17:29.825Z,3.10
2018-04-18T16:19:57.958Z,3.20
2018-04-18T16:22:26.336Z,4.00
2018-04-18T16:24:53.862Z,3.13
2018-04-18T16:27:22.969Z,3.00
2018-04-18T16:29:50.531Z,2.50
2018-04-18T16:32:18.066Z,3.40
2018-04-18T16:34:45.674Z,2.57
2018-04-18T16:37:13.228Z,2.67
2018-04-18T16:39:41.058Z,3.93
2018-04-18T16:42:09.849Z,3.10
2018-04-18T16:44:38.264Z,4.53
2018-04-18T16:47:05.802Z,2.83
2018-04-18T16:49:33.969Z,3.60
2018-04-18T16:52:02.348Z,3.67
2018-04-18T16:54:29.997Z,3.97
2018-04-18T16:56:57.539Z,2.97
2018-04-18T16:59:25.114Z,3.70
2018-04-18T17:01:53.451Z,3.23
2018-04-18T17:04:21.067Z,3.43
2018-04-18T17:06:49.276Z,2.80
2018-04-18T17:09:16.823Z,3.07
2018-04-18T17:11:45.216Z,3.57
2018-04-18T17:14:13.372Z,2.77
2018-04-18T17:16:41.195Z,3.70
2018-04-18T17:19:10.068Z,3.47
2018-04-18T17:21:38.585Z,3.60
2018-04-18T17:24:07.073Z,3.70
2018-04-18T17:26:35.248Z,5.17
2018-04-18T17:29:02.890Z,3.43
2018-04-18T17:31:30.464Z,5.70
2018-04-18T17:33:58.126Z,3.00
2018-04-18T17:36:25.679Z,3.33
2018-04-18T17:38:53.206Z,3.53
2018-04-18T17:41:20.791Z,3.07
2018-04-18T17:43:49.182Z,3.80
2018-04-18T17:46:16.811Z,3.63
2018-04-18T17:48:45.164Z,3.80
2018-04-18T17:51:12.690Z,3.27
2018-04-18T17:53:41.287Z,3.43
2018-04-18T17:56:09.559Z,3.47
2018-04-18T17:58:37.082Z,3.40
2018-04-18T18:01:04.643Z,3.33
2018-04-18T18:03:33.040Z,3.23
2018-04-18T18:06:00.619Z,3.20
2018-04-18T18:08:28.898Z,3.73
2018-04-18T18:10:56.511Z,3.10
2018-04-18T18:13:24.438Z,4.30
2018-04-18T18:15:52.459Z,2.87
2018-04-18T18:18:20.712Z,5.30
2018-04-18T18:20:48.969Z,2.70
2018-04-18T18:23:16.856Z,3.53
2018-04-18T18:25:45.236Z,2.70
2018-04-18T18:28:12.790Z,3.17
2018-04-18T18:30:40.500Z,3.23
2018-04-18T18:33:08.094Z,3.57
2018-04-18T18:35:35.631Z,3.20
2018-04-18T18:38:03.280Z,4.23
2018-04-18T18:40:30.871Z,3.93
2018-04-18T18:42:58.465Z,3.47
2018-04-18T18:45:26.637Z,4.90
2018-04-18T18:47:54.706Z,3.73
2018-04-18T18:50:22.327Z,3.90
2018-04-18T18:52:50.536Z,3.37
2018-04-18T18:55:18.587Z,3.77
2018-04-18T18:57:46.126Z,2.50
2018-04-18T19:00:14.785Z,3.97
2018-04-18T19:02:42.964Z,3.33
2018-04-18T19:05:11.086Z,4.63
2018-04-18T19:07:39.461Z,3.20
2018-04-18T19:10:08.522Z,3.60
2018-04-18T19:12:36.685Z,4.17
2018-04-18T19:15:04.239Z,3.50
2018-04-18T19:17:31.779Z,4.23
2018-04-18T19:19:59.934Z,4.07
2018-04-18T19:22:28.151Z,4.67
2018-04-18T19:24:56.397Z,3.70
2018-04-18T19:27:24.177Z,4.43
2018-04-18T19:29:51.783Z,3.60
2018-04-18T19:32:19.484Z,5.37
2018-04-18T19:34:47.003Z,5.13
2018-04-18T19:37:14.545Z,3.73
2018-04-18T19:39:42.293Z,4.47
2018-04-18T19:42:09.904Z,4.20
2018-04-18T19:44:38.422Z,4.00
2018-04-18T19:47:05.959Z,3.87
2018-04-18T19:49:34.806Z,3.97
2018-04-18T19:52:03.266Z,3.13
2018-04-18T19:54:31.704Z,4.30
2018-04-18T19:57:00.256Z,4.10
2018-04-18T19:59:28.305Z,3.93
2018-04-18T20:01:55.851Z,4.03
2018-04-18T20:04:23.386Z,3.97
2018-04-18T20:06:51.819Z,4.20
2018-04-18T20:09:19.954Z,3.80
2018-04-18T20:11:48.259Z,5.40
2018-04-18T20:14:16.720Z,3.77
2018-04-18T20:16:44.262Z,4.17
2018-04-18T20:19:12.663Z,3.67
2018-04-18T20:21:41.006Z,4.30
2018-04-18T20:24:09.462Z,3.40
2018-04-18T20:26:37.638Z,4.07
2018-04-18T20:29:05.849Z,4.67
2018-04-18T20:31:33.384Z,3.80
2018-04-18T20:34:00.951Z,5.03
2018-04-18T20:36:28.563Z,3.57
2018-04-18T20:38:56.101Z,4.63
2018-04-18T20:41:23.655Z,4.63
2018-04-18T20:43:51.879Z,3.77
2018-04-18T20:46:19.461Z,3.80
2018-04-18T20:48:47.667Z,3.80
2018-04-18T20:51:15.239Z,5.90
2018-04-18T20:53:43.475Z,3.50
2018-04-18T20:56:11.695Z,5.00
2018-04-18T20:58:39.309Z,3.13
2018-04-18T21:01:06.836Z,4.93
2018-04-18T21:03:34.408Z,3.93
2018-04-18T21:06:02.056Z,4.93
2018-04-18T21:08:30.163Z,3.40
2018-04-18T21:10:57.695Z,4.47
2018-04-18T21:13:26.664Z,4.40
2018-04-18T21:15:54.195Z,3.70
2018-04-18T21:18:22.575Z,5.47
2018-04-18T21:20:50.728Z,3.83
2018-04-18T21:23:18.863Z,5.63
2018-04-18T21:25:46.948Z,4.67
2018-04-18T21:28:14.479Z,3.80
2018-04-18T21:30:42.150Z,3.97
2018-04-18T21:33:09.740Z,5.50
2018-04-18T21:35:37.275Z,3.80
2018-04-18T21:38:04.855Z,4.90
2018-04-18T21:40:32.966Z,4.37
2018-04-18T21:43:00.727Z,5.37
2018-04-18T21:45:28.848Z,4.00
2018-04-18T21:47:57.081Z,4.00
2018-04-18T21:50:24.608Z,3.83
2018-04-18T21:52:53.360Z,4.03
2018-04-18T21:55:21.553Z,4.43
2018-04-18T21:57:49.103Z,4.80
2018-04-18T22:00:16.665Z,5.13
2018-04-18T22:02:44.249Z,4.57
2018-04-18T22:05:11.806Z,6.00
2018-04-18T22:07:40.032Z,4.07
2018-04-18T22:10:07.594Z,5.20
2018-04-18T22:12:35.850Z,4.33
2018-04-18T22:15:03.414Z,5.50
2018-04-18T22:17:31.642Z,4.53
2018-04-18T22:20:00.128Z,4.03
2018-04-18T22:22:28.187Z,4.87
2018-04-18T22:24:56.154Z,5.03
2018-04-18T22:27:24.409Z,6.80
2018-04-18T22:29:51.957Z,3.90
2018-04-18T22:32:19.540Z,5.03
2018-04-18T22:34:47.111Z,3.77
2018-04-18T22:37:14.719Z,4.80
2018-04-18T22:39:42.927Z,5.03
2018-04-18T22:42:10.596Z,4.17
2018-04-18T22:44:38.999Z,5.00
2018-04-18T22:47:06.538Z,4.50
2018-04-18T22:49:34.701Z,5.03
2018-04-18T22:52:02.786Z,4.40
2018-04-18T22:54:30.333Z,6.30
2018-04-18T22:56:57.874Z,4.40
2018-04-18T22:59:25.593Z,7.00
2018-04-18T23:01:53.177Z,4.40
2018-04-18T23:04:20.883Z,5.63
2018-04-18T23:06:49.195Z,5.27
2018-04-18T23:09:16.750Z,4.70
2018-04-18T23:11:44.971Z,4.77
2018-04-18T23:14:13.202Z,4.60
2018-04-18T23:16:41.377Z,5.00
2018-04-18T23:19:09.690Z,4.20
2018-04-18T23:21:37.842Z,5.40
2018-04-18T23:24:06.072Z,4.47
2018-04-18T23:26:34.136Z,5.93
2018-04-18T23:29:01.671Z,4.93
2018-04-18T23:31:29.213Z,7.83
2018-04-18T23:33:56.775Z,5.07
2018-04-18T23:36:24.308Z,6.17
2018-04-18T23:38:51.971Z,4.50
2018-04-18T23:41:19.559Z,6.03
2018-04-18T23:43:47.743Z,4.90
2018-04-18T23:46:15.511Z,5.43
2018-04-18T23:48:43.807Z,5.30
2018-04-18T23:51:11.454Z,5.73
2018-04-18T23:53:39.647Z,6.07
2018-04-18T23:56:07.201Z,5.03
2018-04-18T23:58:34.743Z,6.97
